Brazilton, Kansas
Current Conditions -  °F | °C
As of 12:15 PM on Tuesday 21 Oct 2014 (Local Time) from KPTS Reporting Station
Clear Clear  
Wind Chill: 71°   Ceiling: Unl
Heat Index: 71°   Visibility: 10mi
Dew Point: 58°   Wind: 6mph
Humidity: 64%   Direction: 170°S
Pressure: 30.12"   Gusts: NA
Location:  37.5057°N, 94.9338°W
Report Text: KPTS 211715Z AUTO 17005KT 10SM CLR 22/15 A3012 RMK AO2 T02170147
Loading
Personal Weather Stations






























Interactive Weather Map
Tropical Storm Tracking
New forecast layout! Learn more

10-Day Weather Forecast

Advertisements
Track Severe Weather on mobile